Trenton, MO (64683)

11:47 AM CST on February 24, 2017 (GMT -0600)
trenton mo | | Change Station

Elev 850 ft 40.07 °N, 93.61 °W | Updated 20 seconds ago

Overcast
Overcast
38.8 °F
Feels Like 33 °F
N
8.1
Wind Variable Wind from North
Gusts 8.1 mph

Today
High -- | Low -- °F
--% Chance of Precip.
Yesterday
High -- | Low -- °F
Precip. -- in
Pressure 29.63 in
Visibility 10.0 miles
Clouds Mostly Cloudy 1100 ft
Overcast 1600 ft
Windchill 33 °F
Dew Point 35 °F
Humidity 87%
Rainfall 0.00 in
Snow Depth Not available.
6:54 AM 6:01 PM
Waning Crescent, 4% visible
SPECI KLWD 241713Z AUTO 35013KT 10SM BKN011 OVC016 02/00 A2963 RMK AO2 T00170000
Pressure 29.63 in
Visibility 10.0 miles
Clouds Mostly Cloudy 1100 ft
Overcast 1600 ft
Windchill 33 °F
Dew Point 35 °F
Humidity 87%
Rainfall 0.00 in
Snow Depth Not available.
6:54 AM 6:01 PM
Waning Crescent, 4% visible
SPECI KLWD 241713Z AUTO 35013KT 10SM BKN011 OVC016 02/00 A2963 RMK AO2 T00170000

Get Your Daily Forecast Email!

Thanks for signing up!

Be on the lookout for a verification email in your inbox.

You'll start receiving the daily forecast at 8 AM.

×

10-Day Weather Forecast

Almanac

Astronomy

Feb. 24, 2017 Rise Set
Actual Time
Civil Twilight
Nautical Twilight
Astronomical Twilight
Moon
Length of Visible Light
Length of Day
Tomorrow will be .
, % of the Moon is Illuminated

Today's Extremes

State Highs State Lows

Community

WunderPhotos

Upload Photos

1,962,540 photos uploaded!

WunderBlog® & News

Nearby

Air Quality

  Air Quality AQ Index Pollutant
Not available.

Snow Depth

Station Depth Elevation

Earthquake Activity

City Distance Mag. Time & Date
Minimum magnitude displayed is 2.5.

Coastal Water Temperatures

Place Temperature

Stations

Nearby Weather Stations

Station Location Temp. Windchill Dew Point Humidity Wind Precip. Elev Updated Type
                   

Watches & Warnings

There are currently no watches in effect.